Time;durP1;ratioP1;P1;durP2;ratioP2;P2;SDS_P1;SDS_P2;PMS_P1;PMS_P2;Temp;Humidity;BMP_temperature;BMP_pressure;BME280_temperature;BME280_humidity;BME280_pressure;Samples;Min_cycle;Max_cycle;Signal;HPM_P1;HPM_P2
2023/04/08 00:01:33;;;;;;;37.00;18.90;;;5.10;99.90;;;;;;5178725;28;20575;-48
2023/04/08 00:04:04;;;;;;;35.97;19.47;;;5.10;99.90;;;;;;5180518;28;20193;-47
2023/04/08 00:06:36;;;;;;;35.13;18.37;;;5.10;99.90;;;;;;5180937;28;20540;-48
2023/04/08 00:09:06;;;;;;;45.93;19.97;;;5.10;99.90;;;;;;5181372;28;20576;-48
2023/04/08 00:11:37;;;;;;;47.13;21.10;;;5.00;99.90;;;;;;5179645;28;20490;-47
2023/04/08 00:14:08;;;;;;;42.53;21.60;;;5.00;99.90;;;;;;5178215;28;21764;-49
2023/04/08 00:16:38;;;;;;;38.27;21.20;;;5.00;99.90;;;;;;5180005;28;20433;-48
2023/04/08 00:19:09;;;;;;;47.30;23.37;;;5.00;99.90;;;;;;5182181;28;20638;-48
2023/04/08 00:21:40;;;;;;;60.77;26.53;;;5.00;99.90;;;;;;5172033;28;20205;-47
2023/04/08 00:24:11;;;;;;;54.93;26.10;;;4.90;99.90;;;;;;5182492;28;20388;-48
2023/04/08 00:26:41;;;;;;;65.40;30.50;;;4.90;99.90;;;;;;5182484;28;20204;-47
2023/04/08 00:29:12;;;;;;;61.33;28.03;;;4.90;99.90;;;;;;5169720;28;20181;-50
2023/04/08 00:31:43;;;;;;;52.30;26.70;;;4.90;99.90;;;;;;5175973;28;20205;-47
2023/04/08 00:34:14;;;;;;;54.90;27.00;;;4.90;99.90;;;;;;5182401;28;20444;-48
2023/04/08 00:36:46;;;;;;;63.10;26.50;;;5.00;99.90;;;;;;5181214;28;20781;-48
2023/04/08 00:39:16;;;;;;;58.27;27.03;;;5.00;99.90;;;;;;5174552;28;20181;-48
2023/04/08 00:41:47;;;;;;;57.30;26.77;;;5.00;99.90;;;;;;5177429;28;20471;-49
2023/04/08 00:44:18;;;;;;;55.93;26.27;;;5.10;99.90;;;;;;5169614;28;20187;-49
2023/04/08 00:46:49;;;;;;;64.70;29.30;;;5.00;99.90;;;;;;5177581;28;20533;-50
2023/04/08 00:49:20;;;;;;;54.57;26.23;;;5.10;99.90;;;;;;5170940;28;20262;-50
2023/04/08 00:51:50;;;;;;;70.80;29.20;;;5.00;99.90;;;;;;5169177;28;20221;-50
2023/04/08 00:54:21;;;;;;;59.53;27.57;;;5.00;99.90;;;;;;5178658;28;20449;-49
2023/04/08 00:56:52;;;;;;;59.17;27.63;;;5.00;99.90;;;;;;5182538;28;20223;-47
2023/04/08 00:59:22;;;;;;;59.23;27.50;;;5.00;99.90;;;;;;5158488;28;20187;-54
2023/04/08 01:02:11;;;;;;;65.07;30.43;;;5.10;99.90;;;;;;5180662;28;20251;-48
2023/04/08 01:05:03;;;;;;;64.57;28.87;;;5.10;99.90;;;;;;5179560;28;20186;-50
2023/04/08 01:07:44;;;;;;;68.73;31.47;;;5.10;99.90;;;;;;5180947;28;20446;-49
2023/04/08 01:10:20;;;;;;;66.73;30.03;;;5.00;99.90;;;;;;5172788;28;20444;-47
2023/04/08 01:12:56;;;;;;;75.87;32.50;;;5.00;99.90;;;;;;5175905;28;20436;-47
2023/04/08 01:15:28;;;;;;;55.57;27.67;;;5.00;99.90;;;;;;5168619;28;20456;-49
2023/04/08 01:18:00;;;;;;;65.33;29.93;;;5.00;99.90;;;;;;5170674;28;20842;-50
2023/04/08 01:20:32;;;;;;;89.70;35.23;;;5.00;99.90;;;;;;5176015;28;20480;-50
2023/04/08 01:23:07;;;;;;;77.20;31.67;;;5.00;99.90;;;;;;5183364;28;20456;-51
2023/04/08 01:25:38;;;;;;;77.40;31.77;;;5.00;99.90;;;;;;5184709;28;20435;-50
2023/04/08 01:28:11;;;;;;;71.57;32.50;;;5.00;99.90;;;;;;5182562;28;20526;-49
2023/04/08 01:30:46;;;;;;;91.23;35.00;;;5.00;99.90;;;;;;5183461;28;20995;-51
2023/04/08 01:33:18;;;;;;;79.07;35.27;;;5.00;99.90;;;;;;5182967;28;20934;-48
2023/04/08 01:35:51;;;;;;;74.70;30.80;;;5.00;99.90;;;;;;5185965;28;20440;-49
2023/04/08 01:38:25;;;;;;;84.07;31.77;;;5.00;99.90;;;;;;5172395;28;20532;-49
2023/04/08 01:40:56;;;;;;;73.57;29.93;;;5.00;99.90;;;;;;5176559;28;20459;-50
2023/04/08 01:43:28;;;;;;;69.90;33.40;;;5.10;99.90;;;;;;5171288;28;20444;-49
2023/04/08 01:45:59;;;;;;;69.33;30.57;;;5.00;99.90;;;;;;5184741;28;20448;-48
2023/04/08 01:48:31;;;;;;;78.50;35.77;;;5.00;99.90;;;;;;5174761;28;20480;-49
2023/04/08 01:51:04;;;;;;;81.00;32.57;;;5.00;99.90;;;;;;5177114;28;20475;-48
2023/04/08 01:53:35;;;;;;;77.67;31.27;;;4.90;99.90;;;;;;5180690;28;20442;-49
2023/04/08 01:56:10;;;;;;;83.63;34.73;;;4.90;99.90;;;;;;5178060;28;20435;-49
2023/04/08 01:58:45;;;;;;;87.50;32.57;;;4.90;99.90;;;;;;5176376;28;20298;-51
2023/04/08 02:01:19;;;;;;;80.70;33.13;;;4.90;99.90;;;;;;5169469;28;20718;-49
2023/04/08 02:03:51;;;;;;;87.57;33.67;;;5.00;99.90;;;;;;5178068;28;20437;-47
2023/04/08 02:06:22;;;;;;;86.33;32.73;;;4.90;99.90;;;;;;5182078;28;20474;-50
2023/04/08 02:08:54;;;;;;;78.33;31.73;;;5.00;99.90;;;;;;5185135;28;20448;-49
2023/04/08 02:11:24;;;;;;;69.83;30.20;;;5.00;99.90;;;;;;5181425;28;20846;-50
2023/04/08 02:13:55;;;;;;;68.73;33.10;;;5.00;99.90;;;;;;5183839;28;20428;-49
2023/04/08 02:16:35;;;;;;;99.90;37.97;;;5.00;99.90;;;;;;5177114;28;20719;-50
2023/04/08 02:19:24;;;;;;;81.67;34.50;;;4.90;99.90;;;;;;5175362;28;20277;-50
2023/04/08 02:22:05;;;;;;;75.27;33.20;;;4.90;99.90;;;;;;5182186;28;20822;-48
2023/04/08 02:24:38;;;;;;;87.00;35.97;;;5.00;99.90;;;;;;5171814;28;20470;-50
2023/04/08 02:27:10;;;;;;;83.47;35.27;;;5.00;99.90;;;;;;5175997;28;20947;-49
2023/04/08 02:29:41;;;;;;;82.73;35.00;;;5.00;99.90;;;;;;5174911;28;20874;-49
2023/04/08 02:32:15;;;;;;;89.87;37.80;;;5.00;99.90;;;;;;5177049;28;20537;-49
2023/04/08 02:34:47;;;;;;;102.03;34.50;;;4.90;99.90;;;;;;5183415;28;20770;-49
2023/04/08 02:37:18;;;;;;;73.50;30.57;;;5.00;99.90;;;;;;5183736;28;20513;-49
2023/04/08 02:39:49;;;;;;;83.33;33.10;;;5.00;99.90;;;;;;5180910;28;20432;-51
2023/04/08 02:42:20;;;;;;;76.53;31.83;;;5.00;99.90;;;;;;5176318;28;20241;-50
2023/04/08 02:44:50;;;;;;;81.23;33.40;;;5.00;99.90;;;;;;5181530;28;20451;-50
2023/04/08 02:47:21;;;;;;;75.37;32.17;;;5.10;99.90;;;;;;5182705;28;20754;-49
2023/04/08 02:49:53;;;;;;;82.17;34.37;;;5.10;99.90;;;;;;5181434;28;20177;-50
2023/04/08 02:52:24;;;;;;;87.73;34.40;;;5.10;99.90;;;;;;5169033;28;20372;-50
2023/04/08 02:54:55;;;;;;;70.30;30.13;;;5.10;99.90;;;;;;5146864;28;20987;-49
2023/04/08 02:57:25;;;;;;;80.30;31.10;;;5.10;99.90;;;;;;5176217;28;20204;-49
2023/04/08 02:59:56;;;;;;;79.27;31.23;;;5.10;99.90;;;;;;5176344;28;20185;-50
2023/04/08 03:02:27;;;;;;;70.37;29.63;;;5.00;99.90;;;;;;5178789;28;20301;-49
2023/04/08 03:04:58;;;;;;;85.47;33.53;;;5.00;99.90;;;;;;5182253;28;20209;-50
2023/04/08 03:07:28;;;;;;;75.20;30.07;;;5.10;99.90;;;;;;5181803;28;20224;-50
2023/04/08 03:09:59;;;;;;;78.93;32.00;;;5.00;99.90;;;;;;5183079;28;20182;-50
2023/04/08 03:12:30;;;;;;;79.73;32.73;;;5.00;99.90;;;;;;5180634;28;20295;-49
2023/04/08 03:15:02;;;;;;;69.70;31.40;;;5.00;99.90;;;;;;5185498;28;20699;-49
2023/04/08 03:17:33;;;;;;;77.20;32.13;;;5.00;99.90;;;;;;5180163;28;20491;-50
2023/04/08 03:20:04;;;;;;;78.57;33.80;;;5.00;99.90;;;;;;5181579;28;20873;-49
2023/04/08 03:22:36;;;;;;;90.80;35.17;;;5.00;99.90;;;;;;5183355;28;20445;-48
2023/04/08 03:25:07;;;;;;;76.47;33.60;;;5.00;99.90;;;;;;5183487;28;20427;-50
2023/04/08 03:27:37;;;;;;;99.53;35.83;;;5.00;99.90;;;;;;5185161;28;20908;-50
2023/04/08 03:30:08;;;;;;;86.47;33.83;;;5.00;99.90;;;;;;5175717;28;20528;-49
2023/04/08 03:32:39;;;;;;;85.03;33.60;;;5.00;99.90;;;;;;5180442;28;20699;-51
2023/04/08 03:35:10;;;;;;;83.70;34.97;;;5.00;99.90;;;;;;5173579;28;20432;-50
2023/04/08 03:37:40;;;;;;;85.23;33.73;;;5.00;99.90;;;;;;5172497;28;20213;-49
2023/04/08 03:40:11;;;;;;;79.03;34.10;;;5.00;99.90;;;;;;5183270;28;20181;-50
2023/04/08 03:42:42;;;;;;;86.40;34.40;;;5.00;99.90;;;;;;5183481;28;20186;-50
2023/04/08 03:45:13;;;;;;;84.80;33.70;;;5.10;99.90;;;;;;5162611;28;20791;-49
2023/04/08 03:47:43;;;;;;;86.20;33.70;;;5.00;99.90;;;;;;5182986;28;20198;-51
2023/04/08 03:50:14;;;;;;;69.73;32.10;;;5.10;99.90;;;;;;5181206;28;20699;-49
2023/04/08 03:52:45;;;;;;;82.33;33.83;;;5.20;99.90;;;;;;5181619;28;20204;-48
2023/04/08 03:55:15;;;;;;;93.53;36.30;;;5.10;99.90;;;;;;5173533;28;20177;-50
2023/04/08 03:57:46;;;;;;;74.60;35.57;;;5.10;99.90;;;;;;5175996;28;20742;-51
2023/04/08 04:00:17;;;;;;;83.13;35.27;;;5.10;99.90;;;;;;5182953;28;20177;-46
2023/04/08 04:02:47;;;;;;;80.47;32.57;;;5.00;99.90;;;;;;5181694;28;20547;-46
2023/04/08 04:05:18;;;;;;;65.27;31.67;;;5.10;99.90;;;;;;5180452;28;20186;-47
2023/04/08 04:07:49;;;;;;;85.50;33.07;;;5.10;99.90;;;;;;5174630;28;20178;-48
2023/04/08 04:10:19;;;;;;;84.60;33.00;;;5.20;99.90;;;;;;5171693;28;20271;-47
2023/04/08 04:12:50;;;;;;;101.47;35.03;;;5.20;99.90;;;;;;5177851;28;20295;-46
2023/04/08 04:15:21;;;;;;;86.10;35.13;;;5.20;99.90;;;;;;5183995;28;20184;-46
2023/04/08 04:17:52;;;;;;;87.90;34.43;;;5.20;99.90;;;;;;5183887;28;20447;-47
2023/04/08 04:20:24;;;;;;;85.70;35.77;;;5.10;99.90;;;;;;5185682;28;20192;-47
2023/04/08 04:22:55;;;;;;;85.33;33.40;;;5.10;99.90;;;;;;5183865;28;20264;-48
2023/04/08 04:25:26;;;;;;;75.83;32.97;;;5.10;99.90;;;;;;5181652;28;20444;-49
2023/04/08 04:27:56;;;;;;;89.40;32.73;;;5.10;99.90;;;;;;5185028;28;20189;-46
2023/04/08 04:30:27;;;;;;;86.93;33.80;;;5.20;99.90;;;;;;5174623;28;20291;-47
2023/04/08 04:32:58;;;;;;;70.20;31.70;;;5.20;99.90;;;;;;5186975;28;20184;-46
2023/04/08 04:35:28;;;;;;;72.60;30.60;;;5.20;99.90;;;;;;5177145;28;20441;-47
2023/04/08 04:37:59;;;;;;;73.53;32.40;;;5.20;99.90;;;;;;5183222;28;20633;-48
2023/04/08 04:40:30;;;;;;;70.97;33.40;;;5.30;99.90;;;;;;5175786;28;20230;-45
2023/04/08 04:43:00;;;;;;;71.90;29.50;;;5.20;99.90;;;;;;5176930;28;20274;-47
2023/04/08 04:45:31;;;;;;;78.23;32.50;;;5.20;99.90;;;;;;5177099;28;20434;-45
2023/04/08 04:48:02;;;;;;;72.63;32.00;;;5.20;99.90;;;;;;5174707;28;20667;-46
2023/04/08 04:50:33;;;;;;;71.27;32.93;;;5.20;99.90;;;;;;5182956;28;20261;-47
2023/04/08 04:53:03;;;;;;;74.03;31.67;;;5.20;99.90;;;;;;5184528;28;20436;-45
2023/04/08 04:55:34;;;;;;;71.10;31.33;;;5.20;99.90;;;;;;5178948;28;20196;-48
2023/04/08 04:58:04;;;;;;;73.83;32.40;;;5.20;99.90;;;;;;5185989;28;20279;-49
2023/04/08 05:00:35;;;;;;;81.03;30.87;;;5.20;99.90;;;;;;5182930;28;20220;-48
2023/04/08 05:03:06;;;;;;;90.40;31.90;;;5.20;99.90;;;;;;5185597;28;20190;-51
2023/04/08 05:05:36;;;;;;;68.97;30.47;;;5.20;99.90;;;;;;5184031;28;20192;-51
2023/04/08 05:08:07;;;;;;;69.33;32.13;;;5.20;99.90;;;;;;5185487;28;20200;-49
2023/04/08 05:10:40;;;;;;;70.63;32.00;;;5.20;99.90;;;;;;5181498;28;20208;-49
2023/04/08 05:13:10;;;;;;;80.87;33.07;;;5.30;99.90;;;;;;5178668;28;20650;-49
2023/04/08 05:15:41;;;;;;;81.00;32.90;;;5.30;99.90;;;;;;5172777;28;20477;-47
2023/04/08 05:18:12;;;;;;;73.60;33.20;;;5.20;99.90;;;;;;5176548;28;20184;-50
2023/04/08 05:20:43;;;;;;;75.57;34.13;;;5.30;99.90;;;;;;5175812;28;20302;-50
2023/04/08 05:23:13;;;;;;;76.23;33.90;;;5.30;99.90;;;;;;5185759;28;20510;-50
2023/04/08 05:25:44;;;;;;;84.73;34.67;;;5.30;99.90;;;;;;5174430;28;20219;-49
2023/04/08 05:28:15;;;;;;;86.37;35.27;;;5.30;99.90;;;;;;5182894;28;20237;-49
2023/04/08 05:30:50;;;;;;;82.27;33.90;;;5.30;99.90;;;;;;5172053;28;20459;-50
2023/04/08 05:33:20;;;;;;;81.67;35.00;;;5.30;99.90;;;;;;5181509;28;20746;-50
2023/04/08 05:35:52;;;;;;;84.80;32.93;;;5.30;99.90;;;;;;5184595;28;20492;-51
2023/04/08 05:38:22;;;;;;;70.90;31.13;;;5.40;99.90;;;;;;5172356;28;20186;-48
2023/04/08 05:40:53;;;;;;;76.50;32.70;;;5.40;99.90;;;;;;5186531;28;20461;-50
2023/04/08 05:43:24;;;;;;;82.87;37.67;;;5.50;99.90;;;;;;5181743;28;20667;-48
2023/04/08 05:45:55;;;;;;;83.77;34.07;;;5.40;99.90;;;;;;5160631;28;20291;-49
2023/04/08 05:48:25;;;;;;;90.27;36.87;;;5.40;99.90;;;;;;5169640;28;20704;-49
2023/04/08 05:50:56;;;;;;;88.10;35.83;;;5.40;99.90;;;;;;5176732;28;20567;-50
2023/04/08 05:53:26;;;;;;;76.67;34.30;;;5.50;99.90;;;;;;5172454;28;20231;-49
2023/04/08 05:55:57;;;;;;;76.07;34.23;;;5.50;99.90;;;;;;5169717;28;20478;-50
2023/04/08 05:58:28;;;;;;;84.60;35.40;;;5.50;99.90;;;;;;5177839;28;20177;-48
2023/04/08 06:00:58;;;;;;;91.53;36.03;;;5.50;99.90;;;;;;5172737;28;20471;-48
2023/04/08 06:03:29;;;;;;;102.07;37.60;;;5.60;99.90;;;;;;5165301;28;20516;-47
2023/04/08 06:06:00;;;;;;;95.23;35.43;;;5.60;99.90;;;;;;5167746;28;20238;-50
2023/04/08 06:08:31;;;;;;;83.53;36.60;;;5.60;99.90;;;;;;5181526;28;20791;-49
2023/04/08 06:11:03;;;;;;;94.33;36.17;;;5.60;99.90;;;;;;5178686;28;20561;-50
2023/04/08 06:13:33;;;;;;;88.70;36.30;;;5.70;99.90;;;;;;5160147;28;20254;-50
2023/04/08 06:16:16;;;;;;;100.83;37.33;;;5.70;99.90;;;;;;5173620;28;20590;-50
2023/04/08 06:18:46;;;;;;;91.97;35.20;;;5.70;99.90;;;;;;5178094;28;20201;-49
2023/04/08 06:21:17;;;;;;;95.10;35.77;;;5.60;99.90;;;;;;5164310;28;20721;-51
2023/04/08 06:23:48;;;;;;;92.57;36.70;;;5.70;99.90;;;;;;5174264;28;20188;-48
2023/04/08 06:26:18;;;;;;;92.00;35.77;;;5.70;99.90;;;;;;5176544;28;20187;-49
2023/04/08 06:28:49;;;;;;;86.67;36.03;;;5.70;99.90;;;;;;5181267;28;20233;-49
2023/04/08 06:31:20;;;;;;;100.90;40.10;;;5.80;99.90;;;;;;5164882;28;20328;-49
2023/04/08 06:33:51;;;;;;;85.73;37.47;;;5.80;99.90;;;;;;5180299;28;20595;-51
2023/04/08 06:36:22;;;;;;;81.53;34.03;;;5.90;99.90;;;;;;5168663;28;20440;-50
2023/04/08 06:38:52;;;;;;;95.23;37.07;;;5.90;99.90;;;;;;5179098;28;20184;-49
2023/04/08 06:41:23;;;;;;;97.83;36.63;;;5.90;99.90;;;;;;5178271;28;20206;-49
2023/04/08 06:43:54;;;;;;;85.37;33.87;;;5.90;99.90;;;;;;5150561;28;20181;-50
2023/04/08 06:46:25;;;;;;;84.97;37.07;;;5.90;99.90;;;;;;5180227;28;20455;-47
2023/04/08 06:48:55;;;;;;;104.60;37.17;;;5.90;99.90;;;;;;5182286;28;20209;-47
2023/04/08 06:51:27;;;;;;;79.03;34.07;;;6.00;99.90;;;;;;5178718;28;20611;-49
2023/04/08 06:53:57;;;;;;;82.00;35.90;;;6.10;99.90;;;;;;5172204;28;20215;-50
2023/04/08 06:56:28;;;;;;;89.03;34.83;;;6.20;99.90;;;;;;5173310;28;20836;-48
2023/04/08 06:58:59;;;;;;;96.90;35.83;;;6.20;99.90;;;;;;5183872;28;20179;-49
2023/04/08 07:01:30;;;;;;;90.57;37.13;;;6.10;99.90;;;;;;5167656;28;20396;-47
2023/04/08 07:04:01;;;;;;;74.67;35.07;;;6.20;99.90;;;;;;5182308;28;20213;-49
2023/04/08 07:06:32;;;;;;;86.40;35.30;;;6.20;99.90;;;;;;5177506;28;20529;-51
2023/04/08 07:09:03;;;;;;;79.47;33.87;;;6.20;99.90;;;;;;5176254;28;20451;-51
2023/04/08 07:11:34;;;;;;;80.83;33.70;;;6.30;99.90;;;;;;5167170;28;20221;-51
2023/04/08 07:14:05;;;;;;;79.17;34.50;;;6.40;99.90;;;;;;5173223;28;20444;-49
2023/04/08 07:16:35;;;;;;;81.03;32.10;;;6.40;99.90;;;;;;5181477;28;20187;-49
2023/04/08 07:19:06;;;;;;;79.10;31.90;;;6.60;99.90;;;;;;5180414;28;20244;-49
2023/04/08 07:21:36;;;;;;;73.60;30.87;;;6.70;99.90;;;;;;5171489;28;20574;-50
2023/04/08 07:24:07;;;;;;;78.37;31.80;;;6.70;99.90;;;;;;5162827;28;20190;-51
2023/04/08 07:26:38;;;;;;;82.70;33.93;;;6.80;99.90;;;;;;5177471;28;20182;-49
2023/04/08 07:29:09;;;;;;;68.70;32.03;;;6.80;99.90;;;;;;5153046;28;20186;-50
2023/04/08 07:31:39;;;;;;;73.63;32.50;;;6.80;99.90;;;;;;5166169;28;20203;-48
2023/04/08 07:34:11;;;;;;;69.30;30.80;;;6.80;99.90;;;;;;5180629;28;20681;-49
2023/04/08 07:36:41;;;;;;;60.97;30.40;;;6.90;99.90;;;;;;5185618;28;20219;-48
2023/04/08 07:39:12;;;;;;;75.87;30.50;;;7.00;99.90;;;;;;5179108;28;20534;-49
2023/04/08 07:41:42;;;;;;;71.93;30.53;;;7.10;99.90;;;;;;5177532;28;20212;-51
2023/04/08 07:44:15;;;;;;;75.27;30.73;;;7.10;99.90;;;;;;5177585;28;20192;-49
2023/04/08 07:46:50;;;;;;;72.70;32.87;;;7.10;99.90;;;;;;5178760;28;20215;-49
2023/04/08 07:49:20;;;;;;;71.63;30.23;;;7.00;99.90;;;;;;5161676;28;20502;-50
2023/04/08 07:51:52;;;;;;;66.43;30.47;;;7.00;99.90;;;;;;5179128;28;20500;-50
2023/04/08 07:54:22;;;;;;;63.60;29.73;;;7.10;99.90;;;;;;5179201;28;20258;-50
2023/04/08 07:56:53;;;;;;;73.03;31.70;;;7.00;99.90;;;;;;5182620;28;20876;-49
2023/04/08 07:59:23;;;;;;;75.13;30.87;;;7.00;99.90;;;;;;5172106;28;20605;-51
2023/04/08 08:01:54;;;;;;;77.50;31.90;;;7.10;99.90;;;;;;5173444;28;20219;-50
2023/04/08 08:04:25;;;;;;;66.70;31.40;;;7.20;99.90;;;;;;5182062;28;20212;-52
2023/04/08 08:06:56;;;;;;;63.83;29.90;;;7.30;99.90;;;;;;5181672;28;20628;-50
2023/04/08 08:09:26;;;;;;;62.97;29.30;;;7.30;99.90;;;;;;5170306;28;20652;-51
2023/04/08 08:11:57;;;;;;;69.90;30.67;;;7.50;99.90;;;;;;5168829;28;20244;-50
2023/04/08 08:14:28;;;;;;;63.47;28.60;;;7.50;99.90;;;;;;5180018;28;20668;-50
2023/04/08 08:16:58;;;;;;;74.50;31.47;;;7.60;99.90;;;;;;5162265;28;20183;-49
2023/04/08 08:19:29;;;;;;;68.37;29.30;;;7.60;99.90;;;;;;5178246;28;20334;-50
2023/04/08 08:22:00;;;;;;;60.33;28.70;;;7.80;99.90;;;;;;5169791;28;20299;-49
2023/04/08 08:24:30;;;;;;;60.10;28.23;;;7.90;99.90;;;;;;5169444;28;20180;-51
2023/04/08 08:27:03;;;;;;;56.20;27.10;;;8.10;99.90;;;;;;5153660;28;20188;-49
2023/04/08 08:29:34;;;;;;;72.47;29.10;;;8.20;99.90;;;;;;5160807;28;20184;-49
2023/04/08 08:32:04;;;;;;;68.07;29.23;;;8.10;99.90;;;;;;5180200;28;20479;-48
2023/04/08 08:34:35;;;;;;;64.03;27.93;;;8.00;99.90;;;;;;5164419;28;20507;-51
2023/04/08 08:37:06;;;;;;;59.97;27.33;;;8.20;99.90;;;;;;5175434;28;20577;-50
2023/04/08 08:39:36;;;;;;;56.63;26.10;;;8.40;99.90;;;;;;5168578;28;20249;-48
2023/04/08 08:42:21;;;;;;;62.23;26.77;;;8.60;99.90;;;;;;5173414;28;20219;-49
2023/04/08 08:44:51;;;;;;;66.33;28.20;;;8.60;99.90;;;;;;5168866;28;21013;-48
2023/04/08 08:47:22;;;;;;;55.90;27.70;;;8.50;99.90;;;;;;5172259;28;20607;-51
2023/04/08 08:49:53;;;;;;;56.53;24.70;;;8.40;99.90;;;;;;5157262;28;20724;-51
2023/04/08 08:52:23;;;;;;;54.23;27.43;;;8.40;99.90;;;;;;5157828;28;20207;-48
2023/04/08 08:54:57;;;;;;;62.60;27.47;;;8.30;99.90;;;;;;5158273;28;20188;-48
2023/04/08 08:57:28;;;;;;;54.73;27.37;;;8.30;99.90;;;;;;5154235;28;20168;-52
2023/04/08 08:59:59;;;;;;;51.20;26.63;;;8.50;99.90;;;;;;5174126;28;20481;-49
2023/04/08 09:02:30;;;;;;;60.50;26.47;;;8.80;99.90;;;;;;5175370;28;20219;-50
2023/04/08 09:05:03;;;;;;;66.60;25.10;;;9.00;99.90;;;;;;5157979;28;20244;-52
2023/04/08 09:07:39;;;;;;;57.57;27.33;;;9.20;99.90;;;;;;5180484;28;21086;-48
2023/04/08 09:10:10;;;;;;;56.80;26.53;;;9.10;99.90;;;;;;5175736;28;20930;-50
2023/04/08 09:13:07;;;;;;;65.67;26.80;;;9.20;99.90;;;;;;5170331;28;20451;-49
2023/04/08 09:16:02;;;;;;;52.37;25.83;;;9.30;99.90;;;;;;5172039;28;20662;-50
2023/04/08 09:18:33;;;;;;;42.43;23.87;;;9.20;99.90;;;;;;5169996;28;20978;-48
2023/04/08 09:21:05;;;;;;;57.40;26.90;;;9.40;99.90;;;;;;5171868;28;20500;-49
2023/04/08 09:23:49;;;;;;;45.93;23.90;;;9.40;99.90;;;;;;5174005;28;20195;-52
2023/04/08 09:26:23;;;;;;;50.87;24.67;;;9.60;99.90;;;;;;5175148;28;20438;-47
2023/04/08 09:29:07;;;;;;;57.03;26.63;;;9.80;99.90;;;;;;5172241;28;20512;-49
2023/04/08 09:31:42;;;;;;;67.37;26.20;;;9.60;99.90;;;;;;5155422;28;20467;-48
2023/04/08 09:34:16;;;;;;;56.07;25.80;;;9.30;99.90;;;;;;5172495;28;20517;-49
2023/04/08 09:36:48;;;;;;;53.77;24.27;;;9.10;99.90;;;;;;5170874;28;20928;-50
2023/04/08 09:39:18;;;;;;;56.53;26.60;;;9.10;99.90;;;;;;5172380;28;20435;-52
2023/04/08 09:41:50;;;;;;;50.30;23.87;;;9.10;99.90;;;;;;5171334;28;20966;-51
2023/04/08 09:44:23;;;;;;;57.50;26.10;;;9.00;99.90;;;;;;5182778;28;20193;-51
2023/04/08 09:47:23;;;;;;;46.83;25.03;;;9.00;99.90;;;;;;5162813;28;20955;-51
2023/04/08 09:49:59;;;;;;;47.17;25.00;;;9.00;99.90;;;;;;5177084;28;20450;-52
2023/04/08 09:52:35;;;;;;;44.83;25.90;;;9.00;99.90;;;;;;5158922;28;20472;-50
2023/04/08 09:55:09;;;;;;;55.50;26.00;;;9.10;99.90;;;;;;5158409;28;20834;-49
2023/04/08 09:57:45;;;;;;;47.73;25.60;;;9.10;99.90;;;;;;5175506;28;20434;-48
2023/04/08 10:00:17;;;;;;;58.47;26.53;;;8.90;99.90;;;;;;5180809;28;20442;-50
2023/04/08 10:03:11;;;;;;;52.27;25.70;;;8.90;99.90;;;;;;5183450;28;20853;-48
2023/04/08 10:05:43;;;;;;;51.53;26.00;;;8.80;99.90;;;;;;5181659;28;20462;-50
2023/04/08 10:08:14;;;;;;;48.67;25.43;;;8.70;99.90;;;;;;5168834;28;20686;-47
2023/04/08 10:10:46;;;;;;;60.13;27.50;;;8.90;99.90;;;;;;5171181;28;21264;-48
2023/04/08 10:13:17;;;;;;;46.30;23.73;;;9.40;99.90;;;;;;5166435;28;20955;-49
2023/04/08 10:15:48;;;;;;;51.47;24.17;;;10.00;99.90;;;;;;5174085;28;21662;-49
2023/04/08 10:18:19;;;;;;;43.33;24.43;;;10.20;99.90;;;;;;5177297;28;20323;-51
2023/04/08 10:20:50;;;;;;;37.73;20.77;;;10.20;99.90;;;;;;5178147;28;20258;-51
2023/04/08 10:23:55;;;;;;;52.93;21.83;;;10.20;99.90;;;;;;5179445;28;20976;-50
2023/04/08 10:26:41;;;;;;;37.83;20.47;;;10.30;99.90;;;;;;5179068;28;21090;-51
2023/04/08 10:29:17;;;;;;;40.57;21.50;;;10.60;99.90;;;;;;5180002;28;20909;-52
2023/04/08 10:31:49;;;;;;;38.33;21.37;;;10.70;99.90;;;;;;5160382;28;20474;-50
2023/04/08 10:34:25;;;;;;;38.40;19.70;;;11.00;99.90;;;;;;5163835;28;20448;-49
2023/04/08 10:36:57;;;;;;;34.77;18.50;;;11.30;99.90;;;;;;5171829;28;20546;-51
2023/04/08 10:39:30;;;;;;;36.73;20.13;;;11.60;99.90;;;;;;5163482;28;21130;-49
2023/04/08 10:42:01;;;;;;;34.70;17.90;;;11.80;99.90;;;;;;5172585;28;20454;-49
2023/04/08 10:44:32;;;;;;;32.97;18.03;;;11.50;99.90;;;;;;5162773;28;20622;-49
2023/04/08 10:47:02;;;;;;;32.90;19.07;;;11.50;99.90;;;;;;5161958;28;20439;-50
2023/04/08 10:49:33;;;;;;;46.83;20.33;;;11.70;99.90;;;;;;5160304;28;20195;-49
2023/04/08 10:52:08;;;;;;;32.67;19.30;;;11.40;99.90;;;;;;5167706;28;20270;-50
2023/04/08 10:54:47;;;;;;;31.63;19.30;;;11.00;99.90;;;;;;5176171;28;20430;-49
2023/04/08 10:57:24;;;;;;;28.77;17.63;;;10.80;99.90;;;;;;5160872;28;20434;-50
2023/04/08 10:59:55;;;;;;;26.80;16.53;;;10.70;99.90;;;;;;5176168;28;20450;-49
2023/04/08 11:02:32;;;;;;;29.73;17.60;;;10.80;99.90;;;;;;5163616;28;20463;-47
2023/04/08 11:05:03;;;;;;;28.33;16.10;;;10.70;99.90;;;;;;5181436;28;20188;-49
2023/04/08 11:07:40;;;;;;;30.27;16.80;;;10.70;99.90;;;;;;5165597;28;20454;-47
2023/04/08 11:10:11;;;;;;;31.43;17.20;;;10.70;99.90;;;;;;5179099;28;20195;-47
2023/04/08 11:12:43;;;;;;;28.87;16.13;;;10.80;99.90;;;;;;5174635;28;20455;-50
2023/04/08 11:15:14;;;;;;;24.87;17.40;;;11.00;99.90;;;;;;5175319;28;20435;-51
2023/04/08 11:17:46;;;;;;;29.47;17.03;;;11.20;99.90;;;;;;5163682;28;20542;-47
2023/04/08 11:20:17;;;;;;;34.50;19.13;;;11.00;99.90;;;;;;5169444;28;20466;-51
2023/04/08 11:22:49;;;;;;;31.43;18.20;;;10.90;99.90;;;;;;5179381;28;20435;-49
2023/04/08 11:25:20;;;;;;;36.20;18.03;;;10.80;99.90;;;;;;5175504;28;20191;-48
2023/04/08 11:27:51;;;;;;;35.90;20.23;;;10.80;99.90;;;;;;5174165;28;20482;-49
2023/04/08 11:30:22;;;;;;;38.73;19.47;;;10.80;99.90;;;;;;5158435;28;20569;-47
2023/04/08 11:32:54;;;;;;;37.57;18.33;;;10.70;99.90;;;;;;5172812;28;20214;-50
2023/04/08 11:35:29;;;;;;;36.47;18.87;;;10.70;99.90;;;;;;5160157;28;20449;-48
2023/04/08 11:38:04;;;;;;;36.07;19.20;;;10.70;99.90;;;;;;5170881;28;20430;-49
2023/04/08 11:40:35;;;;;;;36.40;19.30;;;10.90;99.90;;;;;;5170974;28;20512;-48
2023/04/08 11:43:14;;;;;;;29.57;18.33;;;10.80;99.90;;;;;;5187350;28;20446;-47
2023/04/08 11:45:45;;;;;;;33.90;18.17;;;10.70;99.90;;;;;;5177706;28;20431;-47
2023/04/08 11:48:16;;;;;;;30.83;18.43;;;10.60;99.90;;;;;;5179450;28;20443;-47
2023/04/08 11:50:46;;;;;;;36.90;18.00;;;10.60;99.90;;;;;;5184322;28;20204;-49
2023/04/08 11:53:21;;;;;;;32.10;19.30;;;10.80;99.90;;;;;;5183339;28;20439;-48
2023/04/08 11:55:51;;;;;;;42.30;20.27;;;10.80;99.90;;;;;;5166222;28;20188;-50
2023/04/08 11:58:22;;;;;;;29.30;17.93;;;10.60;99.90;;;;;;5179936;28;20450;-47
2023/04/08 12:00:53;;;;;;;34.50;19.50;;;10.50;99.90;;;;;;5157076;28;20675;-47
2023/04/08 12:03:24;;;;;;;37.73;19.63;;;10.50;99.90;;;;;;5169482;28;20203;-48
2023/04/08 12:05:54;;;;;;;36.93;18.93;;;10.60;99.90;;;;;;5177985;28;20231;-47
2023/04/08 12:08:25;;;;;;;36.63;18.13;;;10.60;99.90;;;;;;5177323;28;20867;-50
2023/04/08 12:10:56;;;;;;;26.97;16.97;;;10.70;99.90;;;;;;5170202;28;20212;-46
2023/04/08 12:13:27;;;;;;;30.07;17.37;;;10.60;99.90;;;;;;5172334;28;20263;-47
2023/04/08 12:15:57;;;;;;;23.03;15.40;;;10.60;99.90;;;;;;5176870;28;20358;-47
2023/04/08 12:18:28;;;;;;;25.33;14.43;;;10.80;99.90;;;;;;5163350;28;20454;-47
2023/04/08 12:20:58;;;;;;;25.43;13.77;;;11.20;99.90;;;;;;5178929;28;20212;-48
2023/04/08 12:23:29;;;;;;;28.60;15.20;;;11.70;99.90;;;;;;5175496;28;20180;-47
2023/04/08 12:25:59;;;;;;;25.00;14.97;;;11.80;99.90;;;;;;5170343;28;20257;-47
2023/04/08 12:28:30;;;;;;;25.93;14.83;;;11.60;99.90;;;;;;5169002;28;20176;-47
2023/04/08 12:31:01;;;;;;;19.27;13.73;;;11.70;99.90;;;;;;5174781;28;20212;-49
2023/04/08 12:33:32;;;;;;;25.00;12.53;;;11.70;99.90;;;;;;5179065;28;20310;-50
2023/04/08 12:36:03;;;;;;;16.40;12.50;;;11.70;99.90;;;;;;5170977;28;20549;-47
2023/04/08 12:38:34;;;;;;;18.20;11.40;;;11.50;99.90;;;;;;5180341;28;20187;-48
2023/04/08 12:41:05;;;;;;;14.70;10.40;;;11.50;99.90;;;;;;5169272;28;20478;-51
2023/04/08 12:43:36;;;;;;;12.87;10.23;;;11.60;99.90;;;;;;5181861;28;20545;-49
2023/04/08 12:46:07;;;;;;;15.37;10.47;;;12.10;99.90;;;;;;5181295;28;20553;-45
2023/04/08 12:48:37;;;;;;;17.70;12.40;;;12.40;99.90;;;;;;5171479;28;20814;-47
2023/04/08 12:51:09;;;;;;;20.20;13.97;;;12.40;99.90;;;;;;5181075;28;20200;-47
2023/04/08 12:53:39;;;;;;;24.87;14.90;;;12.20;99.90;;;;;;5169738;28;20260;-48
2023/04/08 12:56:10;;;;;;;25.80;15.83;;;11.90;99.90;;;;;;5184476;28;20535;-48
2023/04/08 12:58:41;;;;;;;22.17;15.40;;;11.70;99.90;;;;;;5181871;28;20180;-48
2023/04/08 13:01:11;;;;;;;26.63;14.53;;;11.80;99.90;;;;;;5176024;28;20684;-47